Time;durP1;ratioP1;P1;durP2;ratioP2;P2;SDS_P1;SDS_P2;PMS_P1;PMS_P2;Temp;Humidity;BMP_temperature;BMP_pressure;BME280_temperature;BME280_humidity;BME280_pressure;Samples;Min_cycle;Max_cycle;Signal;HPM_P1;HPM_P2
2022/02/10 00:06:08;;;;;;;38.08;18.45;;;;;;;;;;5030884;28;20542;-64
2022/02/10 00:18:24;;;;;;;30.30;15.88;;;;;;;;;;5030731;28;20057;-64
2022/02/10 00:20:57;;;;;;;29.48;14.90;;;;;;;;;;5030669;28;20077;-64
2022/02/10 00:36:39;;;;;;;28.63;16.13;;;;;;;;;;5011258;28;20061;-64
2022/02/10 00:41:40;;;;;;;28.50;16.35;;;;;;;;;;5010943;28;20137;-64
2022/02/10 00:44:06;;;;;;;29.30;16.85;;;;;;;;;;5010858;28;20026;-64
2022/02/10 00:46:32;;;;;;;28.02;15.43;;;;;;;;;;5010744;28;20028;-64
2022/02/10 00:48:58;;;;;;;29.80;17.13;;;;;;;;;;5010575;28;20026;-64
2022/02/10 00:51:24;;;;;;;30.38;17.35;;;;;;;;;;5010754;28;20033;-63
2022/02/10 00:53:52;;;;;;;34.83;18.42;;;;;;;;;;5010590;28;20508;-64
2022/02/10 00:56:18;;;;;;;27.30;15.60;;;;;;;;;;5010460;28;20057;-64
2022/02/10 00:58:47;;;;;;;29.90;16.25;;;;;;;;;;5010585;28;20030;-64
2022/02/10 01:07:05;;;;;;;33.80;16.55;;;;;;;;;;5010742;28;20120;-65
2022/02/10 01:31:49;;;;;;;23.10;13.07;;;;;;;;;;4953781;29;20077;-64
2022/02/10 01:34:15;;;;;;;39.20;19.08;;;;;;;;;;4952692;29;20608;-63
2022/02/10 01:36:41;;;;;;;30.13;16.10;;;;;;;;;;4953324;29;20047;-64
2022/02/10 01:39:08;;;;;;;26.45;15.18;;;;;;;;;;4953312;29;20543;-64
2022/02/10 01:58:14;;;;;;;18.25;10.75;;;;;;;;;;5013217;28;20419;-64
2022/02/10 02:03:27;;;;;;;18.40;10.75;;;;;;;;;;5013809;28;20061;-64
2022/02/10 02:05:59;;;;;;;20.20;10.98;;;;;;;;;;5013640;28;20692;-64
2022/02/10 02:08:30;;;;;;;21.80;12.20;;;;;;;;;;5013153;28;20021;-64
2022/02/10 02:10:56;;;;;;;21.87;12.37;;;;;;;;;;5013230;28;20036;-64
2022/02/10 02:13:23;;;;;;;20.42;10.95;;;;;;;;;;5013096;28;20244;-63
2022/02/10 02:15:50;;;;;;;19.25;9.98;;;;;;;;;;5013095;28;20482;-64
2022/02/10 02:18:17;;;;;;;18.13;9.65;;;;;;;;;;5011958;28;20030;-64
2022/02/10 02:20:45;;;;;;;16.40;10.70;;;;;;;;;;5013069;28;20390;-63
2022/02/10 02:23:11;;;;;;;20.13;10.52;;;;;;;;;;5012978;28;20037;-64
2022/02/10 02:25:37;;;;;;;18.17;9.20;;;;;;;;;;5012616;28;20030;-63
2022/02/10 02:28:07;;;;;;;16.95;8.55;;;;;;;;;;5012387;28;20041;-63
2022/02/10 02:30:42;;;;;;;17.42;10.15;;;;;;;;;;5012934;28;20061;-64
2022/02/10 03:08:37;;;;;;;26.33;16.77;;;;;;;;;;5012071;28;20609;-63
2022/02/10 03:11:09;;;;;;;27.42;16.52;;;;;;;;;;5012461;28;20022;-65
2022/02/10 03:13:39;;;;;;;20.52;12.20;;;;;;;;;;5012375;28;20529;-65
2022/02/10 03:16:34;;;;;;;30.13;17.10;;;;;;;;;;5012192;28;20533;-64
2022/02/10 03:19:02;;;;;;;26.45;15.23;;;;;;;;;;5011821;28;20044;-64
2022/02/10 04:15:33;;;;;;;18.80;11.68;;;;;;;;;;5011279;28;20050;-64
2022/02/10 04:21:00;;;;;;;16.77;10.25;;;;;;;;;;5011156;28;20040;-64
2022/02/10 05:03:41;;;;;;;14.05;7.80;;;;;;;;;;4953829;29;20031;-63
2022/02/10 05:20:14;;;;;;;19.83;11.65;;;;;;;;;;4953245;29;20412;-63
2022/02/10 05:31:16;;;;;;;21.40;11.88;;;;;;;;;;4953339;29;20046;-63
2022/02/10 05:35:31;;;;;;;23.15;12.90;;;;;;;;;;5013538;28;20046;-63
2022/02/10 05:38:06;;;;;;;23.17;13.38;;;;;;;;;;5013974;28;20049;-63
2022/02/10 05:59:11;;;;;;;41.67;26.20;;;;;;;;;;5013222;28;20460;-63
2022/02/10 06:51:11;;;;;;;34.78;19.15;;;;;;;;;;4952103;29;20078;-65
2022/02/10 07:56:53;;;;;;;38.38;18.17;;;;;;;;;;4875298;29;20037;-65
2022/02/10 08:56:09;;;;;;;10.95;6.57;;;;;;;;;;4953423;29;20089;-62
2022/02/10 09:51:33;;;;;;;17.50;9.30;;;;;;;;;;4913504;29;20077;-65
2022/02/10 09:55:20;;;;;;;18.70;10.20;;;;;;;;;;4913389;29;20050;-65
2022/02/10 09:57:58;;;;;;;21.40;11.10;;;;;;;;;;4913046;29;20065;-63
2022/02/10 10:03:29;;;;;;;26.88;14.88;;;;;;;;;;4897423;29;20036;-64
2022/02/10 10:06:02;;;;;;;27.08;16.80;;;;;;;;;;4945539;28;20137;-66
2022/02/10 10:14:10;;;;;;;33.67;20.15;;;;;;;;;;4951914;29;20501;-64
2022/02/10 10:16:49;;;;;;;32.42;18.55;;;;;;;;;;4952410;29;20050;-65
2022/02/10 10:19:37;;;;;;;33.92;18.73;;;;;;;;;;4951940;29;20504;-66
2022/02/10 10:22:31;;;;;;;29.50;16.92;;;;;;;;;;4952089;29;20065;-66
2022/02/10 10:51:06;;;;;;;28.88;16.25;;;;;;;;;;4844639;29;20063;-68
2022/02/10 10:56:05;;;;;;;28.55;15.93;;;;;;;;;;4857293;29;20042;-68
2022/02/10 11:37:39;;;;;;;24.45;11.50;;;;;;;;;;5011091;28;20040;-67
2022/02/10 11:40:05;;;;;;;17.35;10.43;;;;;;;;;;5010687;28;20445;-67
2022/02/10 11:42:43;;;;;;;20.50;11.00;;;;;;;;;;5011248;28;20119;-64
2022/02/10 11:48:28;;;;;;;16.85;9.18;;;;;;;;;;5011463;28;20040;-66
2022/02/10 12:33:23;;;;;;;;;;;;;;;;;;5010121;28;20065;-65
2022/02/10 12:43:42;;;;;;;12.75;7.03;;;;;;;;;;5010295;28;20359;-64
2022/02/10 13:26:15;;;;;;;13.90;8.05;;;;;;;;;;5016967;28;20068;-68
2022/02/10 13:48:05;;;;;;;14.15;8.63;;;;;;;;;;5015499;28;20050;-66
2022/02/10 14:15:49;;;;;;;16.25;9.15;;;;;;;;;;4912582;29;20040;-69
2022/02/10 14:25:37;;;;;;;14.27;7.78;;;;;;;;;;4912480;29;20032;-69
2022/02/10 14:28:21;;;;;;;16.98;8.27;;;;;;;;;;4992390;28;20474;-64
2022/02/10 14:30:50;;;;;;;21.52;11.07;;;;;;;;;;4992450;28;20022;-66
2022/02/10 14:33:22;;;;;;;23.45;12.95;;;;;;;;;;4991979;28;20110;-64
2022/02/10 14:36:16;;;;;;;;;;;;;;;;;;4992717;28;20061;-62
2022/02/10 15:56:53;;;;;;;51.08;26.30;;;;;;;;;;4991837;28;20049;-62
2022/02/10 16:18:03;;;;;;;41.55;22.80;;;;;;;;;;5011139;28;20029;-62
2022/02/10 16:20:31;;;;;;;38.67;22.35;;;;;;;;;;5011239;28;20397;-63
2022/02/10 16:23:04;;;;;;;41.88;22.17;;;;;;;;;;5010786;28;20024;-62
2022/02/10 16:25:32;;;;;;;;;;;;;;;;;;5011353;28;20048;-63
2022/02/10 16:28:11;;;;;;;47.53;24.55;;;;;;;;;;5010825;28;19909;-65
2022/02/10 16:30:37;;;;;;;51.13;27.02;;;;;;;;;;5010945;28;20029;-66
2022/02/10 16:33:04;;;;;;;69.28;33.78;;;;;;;;;;5009314;28;20108;-65
2022/02/10 16:35:30;;;;;;;58.00;29.98;;;;;;;;;;5009055;28;20045;-64
2022/02/10 16:37:56;;;;;;;56.70;29.33;;;;;;;;;;5010445;28;20029;-64
2022/02/10 16:40:23;;;;;;;52.20;27.75;;;;;;;;;;5009046;28;20105;-62
2022/02/10 16:42:50;;;;;;;48.90;25.08;;;;;;;;;;5009357;28;20026;-63
2022/02/10 16:45:16;;;;;;;47.58;25.23;;;;;;;;;;5010582;28;21154;-64
2022/02/10 16:47:43;;;;;;;40.72;22.92;;;;;;;;;;5015832;28;20032;-65
2022/02/10 16:50:09;;;;;;;43.88;22.20;;;;;;;;;;5013529;28;20034;-63
2022/02/10 16:52:40;;;;;;;38.75;20.98;;;;;;;;;;5014190;28;20022;-63
2022/02/10 17:27:11;;;;;;;99.40;47.25;;;;;;;;;;4953233;29;20454;-64
2022/02/10 17:44:03;;;;;;;113.07;57.50;;;;;;;;;;4952924;29;20526;-65
2022/02/10 17:46:40;;;;;;;110.35;54.17;;;;;;;;;;4952538;29;20043;-64
2022/02/10 17:54:22;;;;;;;87.30;46.15;;;;;;;;;;4952623;29;20055;-64
2022/02/10 17:56:48;;;;;;;113.93;60.40;;;;;;;;;;4952391;29;20031;-65
2022/02/10 17:59:14;;;;;;;114.18;60.38;;;;;;;;;;4951747;28;20098;-63
2022/02/10 18:01:42;;;;;;;117.07;63.67;;;;;;;;;;5008870;28;20042;-64
2022/02/10 18:04:09;;;;;;;111.97;59.33;;;;;;;;;;5013177;28;20034;-63
2022/02/10 18:06:41;;;;;;;107.03;58.30;;;;;;;;;;5013589;28;20045;-64
2022/02/10 18:17:01;;;;;;;127.70;62.63;;;;;;;;;;5012659;28;20026;-64
2022/02/10 18:19:32;;;;;;;117.67;60.43;;;;;;;;;;5012492;28;20080;-64
2022/02/10 19:05:41;;;;;;;103.32;51.38;;;;;;;;;;5011642;28;20113;-65
2022/02/10 19:10:10;;;;;;;104.53;54.65;;;;;;;;;;5011901;28;20034;-66
2022/02/10 19:12:43;;;;;;;111.20;54.85;;;;;;;;;;5011425;28;20442;-63
2022/02/10 19:15:17;;;;;;;104.40;54.67;;;;;;;;;;5011647;28;20037;-63
2022/02/10 19:17:44;;;;;;;110.07;57.22;;;;;;;;;;5011715;28;20354;-66
2022/02/10 19:20:10;;;;;;;119.47;62.63;;;;;;;;;;5011807;28;20088;-64
2022/02/10 19:22:41;;;;;;;120.60;62.30;;;;;;;;;;5011827;28;20068;-63
2022/02/10 19:25:08;;;;;;;145.35;74.13;;;;;;;;;;5011997;28;20415;-63
2022/02/10 19:27:37;;;;;;;121.30;61.15;;;;;;;;;;5010511;28;20026;-64
2022/02/10 19:30:06;;;;;;;132.93;65.15;;;;;;;;;;5011712;28;20033;-65
2022/02/10 19:32:33;;;;;;;138.48;73.88;;;;;;;;;;5012007;28;20069;-65
2022/02/10 19:35:04;;;;;;;144.35;74.88;;;;;;;;;;5011449;28;20058;-66
2022/02/10 19:37:30;;;;;;;135.73;75.13;;;;;;;;;;5012619;28;20092;-66
2022/02/10 19:39:59;;;;;;;145.82;76.97;;;;;;;;;;5012052;28;20037;-65
2022/02/10 19:42:29;;;;;;;183.80;95.53;;;;;;;;;;5011804;28;20466;-65
2022/02/10 19:44:59;;;;;;;198.02;100.25;;;;;;;;;;5011984;28;20034;-62
2022/02/10 19:47:33;;;;;;;170.57;88.38;;;;;;;;;;5011720;28;20065;-62
2022/02/10 19:50:05;;;;;;;131.85;72.05;;;;;;;;;;5012077;28;20037;-63
2022/02/10 19:52:32;;;;;;;139.57;71.35;;;;;;;;;;5011199;28;20025;-63
2022/02/10 19:55:01;;;;;;;160.40;81.50;;;;;;;;;;5011315;28;20061;-63
2022/02/10 19:57:27;;;;;;;192.60;97.53;;;;;;;;;;5009907;28;20026;-63
2022/02/10 19:59:54;;;;;;;162.65;85.53;;;;;;;;;;5010825;28;20147;-63
2022/02/10 20:02:21;;;;;;;171.00;87.80;;;;;;;;;;5010630;28;20549;-63
2022/02/10 20:04:47;;;;;;;164.32;83.75;;;;;;;;;;5007842;28;20400;-63
2022/02/10 20:07:13;;;;;;;157.00;82.35;;;;;;;;;;5010868;28;20026;-63
2022/02/10 20:09:45;;;;;;;163.05;82.78;;;;;;;;;;5011021;28;20022;-65
2022/02/10 20:12:11;;;;;;;155.80;80.60;;;;;;;;;;5010916;28;20037;-63
2022/02/10 20:14:37;;;;;;;160.32;80.18;;;;;;;;;;5011092;28;20052;-64
2022/02/10 20:17:04;;;;;;;163.02;83.88;;;;;;;;;;5010692;28;20039;-64
2022/02/10 20:19:30;;;;;;;178.23;87.88;;;;;;;;;;5011177;28;20521;-64
2022/02/10 20:21:56;;;;;;;162.75;84.38;;;;;;;;;;5011196;28;20041;-64
2022/02/10 20:24:23;;;;;;;161.23;79.65;;;;;;;;;;5014978;28;20026;-65
2022/02/10 20:26:49;;;;;;;155.10;77.75;;;;;;;;;;5014977;28;20576;-64
2022/02/10 20:29:15;;;;;;;151.50;78.00;;;;;;;;;;5015037;28;20112;-64
2022/02/10 20:31:41;;;;;;;150.10;74.80;;;;;;;;;;5015050;28;20037;-65
2022/02/10 20:34:09;;;;;;;150.00;74.35;;;;;;;;;;5015110;28;20029;-65
2022/02/10 20:36:36;;;;;;;139.75;70.55;;;;;;;;;;5014859;28;20108;-64
2022/02/10 20:39:04;;;;;;;143.88;71.93;;;;;;;;;;5014612;28;20103;-64
2022/02/10 20:41:33;;;;;;;131.68;68.25;;;;;;;;;;5014567;28;20034;-65
2022/02/10 20:44:00;;;;;;;127.38;66.95;;;;;;;;;;5016118;28;20029;-65
2022/02/10 20:46:28;;;;;;;131.20;65.03;;;;;;;;;;5014714;28;20022;-64
2022/02/10 20:48:55;;;;;;;128.50;65.43;;;;;;;;;;5014385;28;20095;-64
2022/02/10 20:51:22;;;;;;;125.07;66.38;;;;;;;;;;5013692;28;20055;-64
2022/02/10 20:53:48;;;;;;;124.07;64.03;;;;;;;;;;5014106;28;20076;-63
2022/02/10 20:56:18;;;;;;;121.13;61.88;;;;;;;;;;5015232;28;20479;-64
2022/02/10 20:58:44;;;;;;;118.82;60.63;;;;;;;;;;5014645;28;20374;-64
2022/02/10 21:01:14;;;;;;;116.25;59.70;;;;;;;;;;5014345;28;20086;-63
2022/02/10 21:03:42;;;;;;;118.00;59.85;;;;;;;;;;5014340;28;20022;-64
2022/02/10 21:08:59;;;;;;;110.40;57.35;;;;;;;;;;5014189;28;20030;-64
2022/02/10 21:11:26;;;;;;;105.60;53.95;;;;;;;;;;5015422;28;20048;-63
2022/02/10 21:13:52;;;;;;;109.97;56.13;;;;;;;;;;5014034;28;20540;-65
2022/02/10 21:16:19;;;;;;;112.88;56.95;;;;;;;;;;5014116;28;20057;-65
2022/02/10 21:18:46;;;;;;;109.22;57.75;;;;;;;;;;5013754;28;20018;-65
2022/02/10 21:21:16;;;;;;;113.60;58.17;;;;;;;;;;5013665;28;20422;-65
2022/02/10 21:23:52;;;;;;;107.03;54.50;;;;;;;;;;5013998;28;20113;-65
2022/02/10 21:26:21;;;;;;;106.75;55.28;;;;;;;;;;5013199;28;20390;-64
2022/02/10 21:28:49;;;;;;;107.68;56.83;;;;;;;;;;5013381;28;20026;-65
2022/02/10 21:31:15;;;;;;;102.88;54.47;;;;;;;;;;5013882;28;20072;-64
2022/02/10 21:33:47;;;;;;;101.75;53.28;;;;;;;;;;5012710;28;20033;-65
2022/02/10 21:38:46;;;;;;;102.93;55.67;;;;;;;;;;5013605;28;20034;-64
2022/02/10 21:58:37;;;;;;;105.78;55.25;;;;;;;;;;4952254;29;20031;-65
2022/02/10 22:11:12;;;;;;;94.78;50.83;;;;;;;;;;4951188;28;20521;-64
2022/02/10 22:16:51;;;;;;;85.60;47.65;;;;;;;;;;4971411;28;20101;-64
2022/02/10 22:19:21;;;;;;;79.80;43.92;;;;;;;;;;4971018;28;20059;-66
2022/02/10 22:21:53;;;;;;;75.65;41.30;;;;;;;;;;4953688;28;20816;-64
2022/02/10 22:24:20;;;;;;;;;;;;;;;;;;4952639;29;20518;-65
2022/02/10 22:26:47;;;;;;;78.60;43.38;;;;;;;;;;4952234;29;19973;-64
2022/02/10 22:29:42;;;;;;;78.40;43.50;;;;;;;;;;4987430;28;20036;-64
2022/02/10 22:34:52;;;;;;;80.30;43.85;;;;;;;;;;5008365;28;20616;-62
2022/02/10 22:37:20;;;;;;;82.88;43.70;;;;;;;;;;5000246;28;20030;-64
2022/02/10 22:39:49;;;;;;;83.22;44.72;;;;;;;;;;4983837;28;20486;-63
2022/02/10 22:42:21;;;;;;;71.75;40.08;;;;;;;;;;5004311;28;20049;-64
2022/02/10 22:44:47;;;;;;;55.63;32.43;;;;;;;;;;4998860;28;20018;-63
2022/02/10 22:47:14;;;;;;;72.47;37.85;;;;;;;;;;5000848;28;20092;-64
2022/02/10 22:49:40;;;;;;;72.38;39.20;;;;;;;;;;5002205;28;20036;-64
2022/02/10 22:52:06;;;;;;;67.95;40.25;;;;;;;;;;5000835;28;20101;-64
2022/02/10 22:54:33;;;;;;;72.07;39.55;;;;;;;;;;5001170;28;20100;-64
2022/02/10 22:56:59;;;;;;;67.13;37.95;;;;;;;;;;5002264;28;20030;-64
2022/02/10 22:59:25;;;;;;;73.32;39.55;;;;;;;;;;5000476;28;20426;-64
2022/02/10 23:01:52;;;;;;;65.72;38.90;;;;;;;;;;4998741;28;20365;-63
2022/02/10 23:04:18;;;;;;;66.15;38.78;;;;;;;;;;5001893;28;20026;-63
2022/02/10 23:06:44;;;;;;;69.72;39.63;;;;;;;;;;5000720;28;20101;-64
2022/02/10 23:12:15;;;;;;;63.67;36.65;;;;;;;;;;4950109;29;20126;-64
2022/02/10 23:14:41;;;;;;;67.72;37.92;;;;;;;;;;4950254;29;20601;-64
2022/02/10 23:17:07;;;;;;;61.95;35.03;;;;;;;;;;4950206;29;20677;-64
